createdAt,value
2018-03-26T00:01:56.514Z,58.80
2018-03-26T00:07:25.510Z,58.80
2018-03-26T00:12:53.665Z,58.80
2018-03-26T00:18:22.580Z,58.90
2018-03-26T00:23:52.665Z,58.90
2018-03-26T00:29:22.518Z,59.00
2018-03-26T00:34:51.459Z,59.10
2018-03-26T00:40:19.554Z,59.10
2018-03-26T00:45:47.764Z,59.10
2018-03-26T00:51:15.888Z,59.30
2018-03-26T00:56:44.795Z,59.40
2018-03-26T01:02:13.358Z,59.40
2018-03-26T01:07:42.258Z,59.80
2018-03-26T01:13:10.400Z,59.70
2018-03-26T01:18:38.537Z,59.70
2018-03-26T01:24:07.443Z,60.00
2018-03-26T01:29:35.600Z,60.00
2018-03-26T01:35:04.486Z,60.30
2018-03-26T01:40:32.786Z,60.30
2018-03-26T01:46:00.931Z,60.30
2018-03-26T01:51:30.024Z,60.50
2018-03-26T01:56:58.177Z,60.70
2018-03-26T02:02:26.315Z,60.70
2018-03-26T02:07:54.465Z,60.70
2018-03-26T02:13:22.713Z,60.90
2018-03-26T02:18:50.933Z,61.10
2018-03-26T02:24:21.806Z,61.20
2018-03-26T02:29:50.752Z,61.40
2018-03-26T02:35:18.909Z,61.40
2018-03-26T02:40:47.168Z,61.30
2018-03-26T02:46:15.318Z,61.60
2018-03-26T02:51:43.469Z,61.70
2018-03-26T02:57:12.563Z,61.70
2018-03-26T03:02:41.702Z,61.70
2018-03-26T03:08:10.594Z,61.90
2018-03-26T03:13:38.788Z,61.60
2018-03-26T03:19:06.928Z,61.70
2018-03-26T03:24:35.084Z,61.50
2018-03-26T03:30:03.515Z,61.60
2018-03-26T03:35:33.793Z,61.90
2018-03-26T03:41:02.679Z,62.00
2018-03-26T03:46:32.789Z,62.00
2018-03-26T03:52:00.914Z,62.10
2018-03-26T03:57:29.804Z,62.30
2018-03-26T04:02:57.963Z,62.30
2018-03-26T04:08:26.099Z,62.40
2018-03-26T04:13:54.259Z,62.40
2018-03-26T04:19:22.457Z,62.50
2018-03-26T04:24:52.400Z,62.80
2018-03-26T04:30:21.973Z,62.80
2018-03-26T04:35:50.387Z,62.70
2018-03-26T04:41:18.545Z,62.50
2018-03-26T04:46:46.672Z,62.70
2018-03-26T04:52:14.806Z,62.80
2018-03-26T04:57:43.145Z,62.90
2018-03-26T05:03:12.082Z,63.80
2018-03-26T05:08:40.997Z,63.60
2018-03-26T05:14:09.144Z,63.50
2018-03-26T05:19:38.298Z,63.60
2018-03-26T05:25:07.207Z,63.60
2018-03-26T05:30:35.351Z,63.60
2018-03-26T05:36:04.266Z,63.60
2018-03-26T05:41:32.402Z,63.60
2018-03-26T05:47:00.554Z,63.40
2018-03-26T05:52:28.797Z,63.30
2018-03-26T05:57:56.942Z,63.40
2018-03-26T06:03:25.134Z,63.40
2018-03-26T06:08:53.281Z,63.30
2018-03-26T06:14:21.468Z,63.40
2018-03-26T06:19:49.620Z,63.40
2018-03-26T06:25:18.561Z,63.30
2018-03-26T06:30:46.698Z,63.30
2018-03-26T06:42:26.234Z,63.20
2018-03-26T06:47:54.382Z,63.00
2018-03-26T06:53:23.298Z,63.60
2018-03-26T06:58:51.446Z,62.80
2018-03-26T07:04:20.351Z,62.40
2018-03-26T07:09:48.519Z,62.40
2018-03-26T07:15:16.697Z,62.20
2018-03-26T07:20:44.859Z,62.20
2018-03-26T07:26:12.989Z,62.10
2018-03-26T07:31:41.130Z,61.90
2018-03-26T07:37:09.269Z,61.90
2018-03-26T07:42:37.422Z,61.80
2018-03-26T07:48:06.342Z,61.60
2018-03-26T07:53:34.488Z,61.60
2018-03-26T07:59:02.633Z,61.50
2018-03-26T08:04:31.333Z,61.30
2018-03-26T08:10:00.239Z,61.00
2018-03-26T08:15:28.378Z,60.90
2018-03-26T08:20:56.521Z,60.70
2018-03-26T08:26:24.663Z,60.60
2018-03-26T08:31:52.784Z,60.50
2018-03-26T08:37:20.939Z,60.10
2018-03-26T08:42:49.093Z,59.80
2018-03-26T08:48:18.013Z,59.30
2018-03-26T08:53:46.964Z,59.20
2018-03-26T08:59:15.890Z,58.90
2018-03-26T09:04:44.799Z,58.70
2018-03-26T09:10:12.953Z,58.70
2018-03-26T09:15:41.862Z,58.30
2018-03-26T09:21:10.005Z,58.30
2018-03-26T09:26:38.902Z,57.90
2018-03-26T09:32:07.029Z,57.70
2018-03-26T09:37:37.135Z,57.60
2018-03-26T09:43:06.029Z,57.30
2018-03-26T09:48:34.166Z,57.20
2018-03-26T09:54:02.300Z,56.70
2018-03-26T09:59:30.459Z,56.50
2018-03-26T10:04:58.603Z,56.40
2018-03-26T10:10:26.762Z,56.00
2018-03-26T10:15:55.673Z,55.40
2018-03-26T10:21:23.819Z,55.30
2018-03-26T10:26:52.718Z,54.60
2018-03-26T10:32:20.904Z,54.50
2018-03-26T10:37:49.072Z,54.50
2018-03-26T10:43:17.305Z,54.20
2018-03-26T10:48:46.234Z,53.80
2018-03-26T10:54:16.416Z,53.80
2018-03-26T10:59:45.367Z,54.00
2018-03-26T11:05:13.528Z,54.00
2018-03-26T11:10:41.658Z,54.20
2018-03-26T11:16:09.800Z,53.80
2018-03-26T11:21:38.060Z,53.60
2018-03-26T11:27:06.222Z,53.00
2018-03-26T11:32:34.386Z,52.40
2018-03-26T11:38:03.303Z,51.90
2018-03-26T11:43:31.448Z,51.80
2018-03-26T11:49:00.350Z,52.40
2018-03-26T11:54:28.499Z,51.80
2018-03-26T11:59:57.406Z,51.60
2018-03-26T12:05:25.564Z,51.60
2018-03-26T12:10:53.730Z,51.70
2018-03-26T12:16:21.907Z,51.80
2018-03-26T12:21:51.009Z,51.40
2018-03-26T12:27:19.181Z,52.20
2018-03-26T12:32:47.327Z,52.10
2018-03-26T12:38:15.487Z,52.00
2018-03-26T12:43:43.678Z,52.10
2018-03-26T12:49:11.877Z,52.30
2018-03-26T12:54:40.041Z,52.70
2018-03-26T13:00:08.208Z,53.00
2018-03-26T13:05:38.040Z,53.40
2018-03-26T13:11:06.522Z,53.30
2018-03-26T13:16:34.673Z,53.40
2018-03-26T13:22:03.609Z,53.00
2018-03-26T13:27:32.519Z,53.10
2018-03-26T13:33:00.662Z,53.00
2018-03-26T13:38:29.576Z,54.00
2018-03-26T13:43:57.733Z,54.00
2018-03-26T13:49:26.639Z,54.60
2018-03-26T13:54:54.795Z,54.50
2018-03-26T14:00:22.926Z,54.90
2018-03-26T14:05:51.059Z,54.90
2018-03-26T14:11:37.126Z,54.80
2018-03-26T14:17:23.156Z,55.10
2018-03-26T14:22:51.313Z,55.30
2018-03-26T14:28:19.446Z,55.20
2018-03-26T14:33:48.402Z,55.50
2018-03-26T14:39:16.545Z,55.50
2018-03-26T14:44:44.712Z,55.70
2018-03-26T14:50:14.494Z,55.70
2018-03-26T14:55:42.666Z,55.70
2018-03-26T15:01:10.811Z,55.80
2018-03-26T15:06:39.731Z,55.70
2018-03-26T15:12:07.880Z,55.70
2018-03-26T15:17:36.786Z,55.80
2018-03-26T15:23:04.929Z,55.80
2018-03-26T15:28:33.818Z,55.60
2018-03-26T15:34:01.960Z,55.60
2018-03-26T15:39:30.100Z,55.70
2018-03-26T15:44:59.011Z,55.50
2018-03-26T15:50:27.165Z,55.50
2018-03-26T15:55:56.079Z,56.10
2018-03-26T16:01:24.275Z,56.10
2018-03-26T16:06:53.092Z,56.30
2018-03-26T16:12:21.227Z,56.60
2018-03-26T16:17:49.356Z,56.80
2018-03-26T16:23:17.534Z,56.80
2018-03-26T16:28:45.700Z,57.00
2018-03-26T16:34:13.863Z,57.10
2018-03-26T16:39:42.026Z,57.10
2018-03-26T16:45:10.149Z,57.30
2018-03-26T16:50:38.289Z,57.30
2018-03-26T16:56:06.428Z,57.50
2018-03-26T17:01:35.343Z,57.20
2018-03-26T17:07:03.522Z,57.20
2018-03-26T17:12:31.659Z,57.30
2018-03-26T17:18:00.742Z,57.30
2018-03-26T17:23:29.731Z,59.20
2018-03-26T17:28:58.037Z,59.60
2018-03-26T17:34:26.219Z,59.60
2018-03-26T17:39:54.339Z,60.30
2018-03-26T17:45:22.493Z,61.00
2018-03-26T17:50:51.383Z,62.50
2018-03-26T17:56:19.675Z,61.90
2018-03-26T18:01:47.826Z,62.40
2018-03-26T18:07:16.196Z,62.80
2018-03-26T18:12:44.457Z,62.90
2018-03-26T18:18:14.492Z,63.80
2018-03-26T18:23:43.484Z,63.80
2018-03-26T18:29:11.647Z,64.20
2018-03-26T18:34:39.788Z,64.50
2018-03-26T18:40:12.580Z,65.10
2018-03-26T18:45:41.797Z,65.50
2018-03-26T18:51:10.004Z,65.90
2018-03-26T18:56:38.166Z,66.10
2018-03-26T19:02:07.088Z,66.80
2018-03-26T19:07:35.989Z,67.00
2018-03-26T19:13:04.150Z,67.00
2018-03-26T19:18:35.031Z,67.40
2018-03-26T19:24:08.622Z,67.60
2018-03-26T19:29:37.728Z,67.60
2018-03-26T19:35:06.642Z,67.80
2018-03-26T19:40:35.699Z,67.90
2018-03-26T19:46:05.578Z,69.10
2018-03-26T19:51:33.737Z,69.00
2018-03-26T19:57:01.912Z,69.20
2018-03-26T20:02:30.841Z,69.60
2018-03-26T20:08:09.714Z,70.00
2018-03-26T20:13:38.623Z,70.30
2018-03-26T20:19:06.764Z,70.20
2018-03-26T20:24:35.657Z,70.60
2018-03-26T20:30:03.893Z,70.50
2018-03-26T20:35:32.041Z,74.20
2018-03-26T20:41:00.962Z,71.90
2018-03-26T20:46:29.095Z,71.90
2018-03-26T20:51:57.253Z,71.60
2018-03-26T20:57:25.387Z,71.40
2018-03-26T21:02:53.530Z,71.30
2018-03-26T21:08:21.684Z,71.30
2018-03-26T21:13:50.586Z,71.30
2018-03-26T21:19:18.747Z,71.30
2018-03-26T21:24:46.885Z,71.30
2018-03-26T21:30:15.043Z,71.20
2018-03-26T21:35:43.200Z,71.30
2018-03-26T21:41:12.100Z,71.50
2018-03-26T21:46:40.254Z,71.50
2018-03-26T21:52:11.126Z,71.70
2018-03-26T21:57:39.275Z,71.60
2018-03-26T22:03:07.408Z,71.70
2018-03-26T22:08:36.313Z,71.90
2018-03-26T22:14:05.223Z,72.10
2018-03-26T22:19:33.368Z,72.10
2018-03-26T22:25:02.266Z,72.20
2018-03-26T22:30:30.399Z,72.20
2018-03-26T22:35:58.539Z,72.40
2018-03-26T22:41:26.685Z,72.70
2018-03-26T22:46:54.829Z,72.90
2018-03-26T22:52:23.020Z,72.90
2018-03-26T22:57:51.908Z,73.00
2018-03-26T23:03:20.052Z,73.00
2018-03-26T23:08:48.962Z,72.90
2018-03-26T23:14:17.112Z,73.10
2018-03-26T23:19:46.027Z,73.20
2018-03-26T23:25:14.207Z,73.20
2018-03-26T23:30:42.363Z,73.20
2018-03-26T23:36:10.512Z,73.30
2018-03-26T23:41:39.414Z,73.30
2018-03-26T23:47:07.558Z,73.40
2018-03-26T23:52:35.696Z,73.40
2018-03-26T23:58:04.612Z,73.50
